Time;durP1;ratioP1;P1;durP2;ratioP2;P2;SDS_P1;SDS_P2;PMS_P1;PMS_P2;Temp;Humidity;BMP_temperature;BMP_pressure;BME280_temperature;BME280_humidity;BME280_pressure;Samples;Min_cycle;Max_cycle;Signal;HPM_P1;HPM_P2
2022/12/20 00:00:51;;;;;;;3.33;1.73;;;0.70;83.70;;;;;;5083421;28;20178;-71
2022/12/20 00:03:17;;;;;;;3.37;1.70;;;0.70;83.70;;;;;;5082411;28;20178;-72
2022/12/20 00:05:43;;;;;;;2.23;1.93;;;0.70;83.70;;;;;;5080781;28;20708;-71
2022/12/20 00:08:09;;;;;;;3.37;1.83;;;0.70;83.70;;;;;;5078548;28;20205;-72
2022/12/20 00:10:41;;;;;;;1.93;1.83;;;0.70;83.70;;;;;;5081787;28;20193;-70
2022/12/20 00:13:07;;;;;;;1.73;1.63;;;0.70;83.60;;;;;;5079754;28;20565;-72
2022/12/20 00:15:33;;;;;;;3.23;1.70;;;0.70;83.60;;;;;;5081210;28;20170;-71
2022/12/20 00:17:59;;;;;;;2.30;1.40;;;0.70;83.60;;;;;;5080270;28;20192;-70
2022/12/20 00:20:26;;;;;;;3.53;2.00;;;0.60;83.60;;;;;;5080372;28;20210;-70
2022/12/20 00:22:52;;;;;;;3.27;2.20;;;0.60;83.60;;;;;;5081218;28;20247;-70
2022/12/20 00:25:19;;;;;;;2.80;1.63;;;0.60;83.60;;;;;;5079320;28;20190;-70
2022/12/20 00:27:45;;;;;;;1.73;1.47;;;0.60;83.70;;;;;;5080680;28;20178;-70
2022/12/20 00:30:11;;;;;;;1.50;1.40;;;0.60;83.70;;;;;;5082194;28;20216;-71
2022/12/20 00:32:37;;;;;;;2.07;1.13;;;0.60;83.80;;;;;;5080500;28;20224;-72
2022/12/20 00:35:03;;;;;;;1.97;1.60;;;0.50;83.80;;;;;;5081228;28;20182;-70
2022/12/20 00:37:29;;;;;;;2.93;1.70;;;0.50;83.90;;;;;;5081947;28;20174;-71
2022/12/20 00:39:55;;;;;;;2.83;1.60;;;0.50;84.00;;;;;;5082031;28;20188;-70
2022/12/20 00:42:20;;;;;;;2.60;2.40;;;0.50;84.10;;;;;;5079323;28;20186;-71
2022/12/20 00:44:46;;;;;;;1.93;1.50;;;0.50;84.10;;;;;;5081567;28;20190;-71
2022/12/20 00:47:12;;;;;;;3.47;2.00;;;0.50;84.20;;;;;;5080601;28;20204;-70
2022/12/20 00:49:37;;;;;;;4.93;1.93;;;0.50;84.10;;;;;;5080741;28;20217;-69
2022/12/20 00:52:03;;;;;;;2.67;1.40;;;0.50;84.10;;;;;;5080294;28;20183;-71
2022/12/20 00:54:29;;;;;;;3.30;2.10;;;0.50;84.00;;;;;;5078946;28;20247;-70
2022/12/20 00:56:55;;;;;;;1.33;1.30;;;0.50;84.00;;;;;;5080840;28;20186;-70
2022/12/20 00:59:20;;;;;;;1.80;1.43;;;0.50;84.00;;;;;;5079871;28;20272;-70
2022/12/20 01:01:47;;;;;;;6.27;2.77;;;0.50;83.90;;;;;;5080509;28;20195;-71
2022/12/20 01:04:13;;;;;;;2.17;1.97;;;0.50;83.80;;;;;;5080103;28;20178;-72
2022/12/20 01:06:39;;;;;;;1.80;1.70;;;0.50;83.80;;;;;;5079051;28;20638;-71
2022/12/20 01:09:05;;;;;;;4.17;1.97;;;0.50;83.90;;;;;;5080825;28;20766;-71
2022/12/20 01:11:33;;;;;;;3.63;2.00;;;0.40;83.80;;;;;;5082135;28;20255;-71
2022/12/20 01:14:04;;;;;;;7.90;2.07;;;0.40;83.90;;;;;;5084798;28;20194;-71
2022/12/20 01:16:34;;;;;;;1.00;1.00;;;0.40;83.90;;;;;;5085094;28;20193;-70
2022/12/20 01:19:00;;;;;;;3.07;2.13;;;0.40;83.90;;;;;;5084448;28;20219;-70
2022/12/20 01:21:26;;;;;;;1.20;1.20;;;0.40;83.90;;;;;;5082921;28;20179;-70
2022/12/20 01:23:52;;;;;;;3.63;1.93;;;0.40;83.80;;;;;;5083447;28;20182;-70
2022/12/20 01:26:21;;;;;;;1.40;1.37;;;0.40;83.70;;;;;;5083104;28;20722;-70
2022/12/20 01:28:48;;;;;;;2.60;1.63;;;0.30;83.90;;;;;;5083231;28;20214;-70
2022/12/20 01:31:16;;;;;;;0.70;0.70;;;0.30;83.90;;;;;;5083837;28;20977;-70
2022/12/20 01:33:43;;;;;;;1.73;1.40;;;0.30;83.90;;;;;;5082756;28;20274;-71
2022/12/20 01:36:12;;;;;;;1.37;1.30;;;0.30;83.80;;;;;;5083273;28;20243;-71
2022/12/20 01:38:38;;;;;;;2.93;1.60;;;0.30;83.80;;;;;;5083642;28;20185;-70
2022/12/20 01:41:06;;;;;;;2.43;2.10;;;0.30;83.90;;;;;;5083577;28;20178;-71
2022/12/20 01:43:47;;;;;;;1.57;1.37;;;0.30;83.90;;;;;;5081349;28;20186;-71
2022/12/20 01:46:14;;;;;;;1.50;1.40;;;0.30;83.80;;;;;;5081313;28;20189;-70
2022/12/20 01:48:41;;;;;;;1.73;1.63;;;0.30;83.80;;;;;;5083049;28;20654;-71
2022/12/20 01:51:07;;;;;;;3.70;2.33;;;0.30;83.80;;;;;;5082297;28;21113;-70
2022/12/20 01:53:33;;;;;;;3.23;2.17;;;0.20;83.70;;;;;;5083822;28;20200;-70
2022/12/20 01:56:04;;;;;;;2.17;1.70;;;0.20;83.70;;;;;;5084049;28;20198;-71
2022/12/20 01:58:30;;;;;;;1.57;1.10;;;0.20;83.70;;;;;;5083738;28;20201;-71
2022/12/20 02:00:55;;;;;;;1.93;1.70;;;0.20;83.70;;;;;;5081267;28;20187;-71
2022/12/20 02:03:22;;;;;;;4.20;1.70;;;0.20;83.70;;;;;;5082808;28;20298;-70
2022/12/20 02:05:48;;;;;;;2.20;1.40;;;0.20;83.70;;;;;;5082484;28;20267;-71
2022/12/20 02:08:18;;;;;;;1.00;1.00;;;0.20;83.70;;;;;;5083280;28;20230;-70
2022/12/20 02:11:02;;;;;;;3.57;1.00;;;0.20;83.60;;;;;;5081697;28;20198;-71
2022/12/20 02:13:54;;;;;;;1.80;1.73;;;0.10;83.60;;;;;;5083840;28;20189;-70
2022/12/20 02:16:28;;;;;;;1.20;1.20;;;0.10;83.60;;;;;;5082201;28;20194;-70
2022/12/20 02:19:20;;;;;;;0.97;0.97;;;0.10;83.50;;;;;;5082876;28;20233;-71
2022/12/20 02:22:08;;;;;;;1.30;1.13;;;0.10;83.60;;;;;;5082039;28;20572;-71
2022/12/20 02:24:40;;;;;;;1.23;1.20;;;0.10;83.60;;;;;;5082996;28;20187;-71
2022/12/20 02:27:16;;;;;;;1.30;1.30;;;0.10;83.60;;;;;;5082540;28;20194;-71
2022/12/20 02:30:05;;;;;;;1.27;1.27;;;0.10;83.50;;;;;;5082124;28;20217;-71
2022/12/20 02:32:35;;;;;;;1.00;0.97;;;0.10;83.60;;;;;;5083534;28;20589;-72
2022/12/20 02:35:01;;;;;;;1.60;1.50;;;0.00;83.60;;;;;;5083126;28;20194;-71
2022/12/20 02:37:27;;;;;;;1.50;1.40;;;0.00;83.50;;;;;;5083968;28;20205;-71
2022/12/20 02:39:53;;;;;;;1.70;1.60;;;0.00;83.40;;;;;;5083084;28;20679;-70
2022/12/20 02:42:22;;;;;;;2.87;2.20;;;0.00;83.40;;;;;;5083701;28;20263;-71
2022/12/20 02:45:14;;;;;;;1.27;1.17;;;0.00;83.40;;;;;;5082090;28;20190;-71
2022/12/20 02:48:06;;;;;;;5.53;2.53;;;0.00;83.40;;;;;;5082453;28;20252;-71
2022/12/20 02:50:45;;;;;;;1.17;1.07;;;0.00;83.40;;;;;;5081831;28;20293;-71
2022/12/20 02:53:13;;;;;;;1.30;1.20;;;0.00;83.20;;;;;;5082093;28;20200;-71
2022/12/20 02:55:56;;;;;;;3.20;1.00;;;-0.10;83.40;;;;;;5082749;28;21083;-71
2022/12/20 02:58:37;;;;;;;1.90;1.03;;;-0.10;83.40;;;;;;5081426;28;20277;-70
2022/12/20 03:01:11;;;;;;;1.63;1.30;;;-0.10;83.30;;;;;;5081583;28;20463;-70
2022/12/20 03:03:38;;;;;;;1.30;1.30;;;-0.10;83.40;;;;;;5081052;28;20662;-71
2022/12/20 03:06:05;;;;;;;1.43;1.00;;;-0.10;83.40;;;;;;5080990;28;20186;-71
2022/12/20 03:08:31;;;;;;;2.50;1.53;;;-0.10;83.40;;;;;;5082097;28;20225;-71
2022/12/20 03:10:57;;;;;;;1.43;1.33;;;-0.10;83.40;;;;;;5079065;28;20645;-71
2022/12/20 03:13:24;;;;;;;0.77;0.77;;;-0.10;83.40;;;;;;5082101;28;20183;-70
2022/12/20 03:15:50;;;;;;;2.13;1.50;;;-0.20;83.40;;;;;;5081028;28;20179;-71
2022/12/20 03:18:15;;;;;;;1.93;1.93;;;-0.20;83.60;;;;;;5080594;28;20190;-71
2022/12/20 03:20:41;;;;;;;2.83;1.67;;;-0.20;83.70;;;;;;5081107;28;20203;-71
2022/12/20 03:23:07;;;;;;;1.37;1.17;;;-0.20;83.90;;;;;;5080757;28;20622;-73
2022/12/20 03:25:33;;;;;;;4.70;1.67;;;-0.20;83.80;;;;;;5080764;28;20188;-71
2022/12/20 03:27:58;;;;;;;0.97;0.97;;;-0.30;83.80;;;;;;5082140;28;20583;-71
2022/12/20 03:30:24;;;;;;;2.33;1.97;;;-0.30;83.90;;;;;;5080663;28;21109;-73
2022/12/20 03:32:50;;;;;;;2.00;1.20;;;-0.30;83.80;;;;;;5080948;28;20265;-71
2022/12/20 03:35:16;;;;;;;1.73;1.63;;;-0.30;83.90;;;;;;5081381;28;20182;-71
2022/12/20 03:37:41;;;;;;;2.80;1.33;;;-0.30;83.90;;;;;;5082110;28;20584;-72
2022/12/20 03:40:08;;;;;;;1.60;1.47;;;-0.30;84.10;;;;;;5081778;28;20197;-71
2022/12/20 03:42:34;;;;;;;3.47;1.00;;;-0.30;84.10;;;;;;5078493;28;20197;-71
2022/12/20 03:45:00;;;;;;;0.93;0.93;;;-0.30;84.20;;;;;;5082396;28;20202;-71
2022/12/20 03:47:26;;;;;;;2.73;2.03;;;-0.30;84.20;;;;;;5080203;28;20239;-71
2022/12/20 03:49:51;;;;;;;1.70;1.60;;;-0.30;84.30;;;;;;5080858;28;20214;-71
2022/12/20 03:52:17;;;;;;;2.03;1.67;;;-0.40;84.20;;;;;;5082191;28;20274;-71
2022/12/20 03:54:43;;;;;;;1.67;1.57;;;-0.40;84.40;;;;;;5081682;28;20217;-71
2022/12/20 03:57:09;;;;;;;2.77;2.53;;;-0.40;84.30;;;;;;5078954;28;20229;-72
2022/12/20 03:59:36;;;;;;;1.97;1.87;;;-0.40;84.30;;;;;;5082414;28;20647;-71
2022/12/20 04:02:02;;;;;;;1.30;1.20;;;-0.40;84.30;;;;;;5079216;28;20194;-72
2022/12/20 04:04:28;;;;;;;2.27;2.10;;;-0.40;84.20;;;;;;5080987;28;20182;-71
2022/12/20 04:06:53;;;;;;;1.20;1.20;;;-0.50;84.30;;;;;;5079724;28;20197;-70
2022/12/20 04:09:19;;;;;;;3.43;1.80;;;-0.50;84.30;;;;;;5080092;28;20631;-71
2022/12/20 04:11:45;;;;;;;2.70;1.67;;;-0.50;84.40;;;;;;5079826;28;20554;-72
2022/12/20 04:14:10;;;;;;;1.40;1.30;;;-0.50;84.40;;;;;;5079879;28;20198;-72
2022/12/20 04:16:37;;;;;;;2.07;1.97;;;-0.50;84.30;;;;;;5080747;28;20247;-72
2022/12/20 04:19:03;;;;;;;3.30;2.13;;;-0.50;84.30;;;;;;5080528;28;20190;-71
2022/12/20 04:21:31;;;;;;;1.37;1.30;;;-0.50;84.20;;;;;;5078917;28;20710;-71
2022/12/20 04:23:58;;;;;;;3.20;1.77;;;-0.60;84.30;;;;;;5080338;28;20186;-72
2022/12/20 04:26:24;;;;;;;2.37;2.27;;;-0.60;84.30;;;;;;5078954;28;20190;-72
2022/12/20 04:28:50;;;;;;;2.20;1.53;;;-0.60;84.30;;;;;;5080600;28;20210;-72
2022/12/20 04:31:16;;;;;;;4.13;2.23;;;-0.60;84.30;;;;;;5079186;28;20189;-72
2022/12/20 04:33:42;;;;;;;2.50;2.37;;;-0.60;84.20;;;;;;5079990;28;20191;-71
2022/12/20 04:36:08;;;;;;;1.90;1.30;;;-0.60;84.10;;;;;;5080015;28;20261;-71
2022/12/20 04:38:33;;;;;;;2.53;2.00;;;-0.60;84.10;;;;;;5080683;28;20182;-71
2022/12/20 04:40:59;;;;;;;1.90;1.83;;;-0.60;84.10;;;;;;5079729;28;20185;-72
2022/12/20 04:43:25;;;;;;;2.07;1.83;;;-0.70;84.00;;;;;;5080096;28;20187;-72
2022/12/20 04:45:55;;;;;;;5.40;2.30;;;-0.70;84.00;;;;;;5084816;28;20228;-72
2022/12/20 04:48:23;;;;;;;2.03;1.93;;;-0.70;84.00;;;;;;5084052;28;20796;-71
2022/12/20 04:50:50;;;;;;;2.17;1.60;;;-0.70;84.10;;;;;;5082206;28;20663;-72
2022/12/20 04:56:01;;;;;;;2.70;2.50;;;-0.70;84.00;;;;;;5083107;28;20831;-72
2022/12/20 04:58:27;;;;;;;3.43;1.40;;;-0.70;84.10;;;;;;5098472;28;20642;-72
2022/12/20 05:00:53;;;;;;;2.17;2.17;;;-0.70;84.30;;;;;;5082410;28;20186;-71
2022/12/20 05:03:20;;;;;;;1.87;1.77;;;-0.80;84.30;;;;;;5079532;28;20255;-70
2022/12/20 05:05:46;;;;;;;2.23;1.77;;;-0.80;84.50;;;;;;5083276;28;20185;-70
2022/12/20 05:08:12;;;;;;;1.03;0.97;;;-0.80;84.30;;;;;;5083814;28;20185;-70
2022/12/20 05:10:37;;;;;;;3.63;2.50;;;-0.80;84.30;;;;;;5084823;28;20193;-70
2022/12/20 05:13:03;;;;;;;1.63;1.53;;;-0.80;84.50;;;;;;5083817;28;20191;-70
2022/12/20 05:15:29;;;;;;;3.23;1.40;;;-0.80;84.50;;;;;;5083833;28;20742;-70
2022/12/20 05:17:59;;;;;;;2.07;1.80;;;-0.80;84.30;;;;;;5082303;28;20269;-70
2022/12/20 05:20:29;;;;;;;1.50;1.40;;;-0.80;84.30;;;;;;5082007;28;20182;-70
2022/12/20 05:28:33;;;;;;;2.73;2.30;;;-0.90;84.90;;;;;;5083745;28;20294;-74
2022/12/20 05:31:00;;;;;;;2.87;2.37;;;-1.00;85.10;;;;;;5085245;28;20190;-73
2022/12/20 05:33:26;;;;;;;2.07;1.97;;;-1.10;85.10;;;;;;5082681;28;20274;-73
2022/12/20 05:35:52;;;;;;;2.80;1.80;;;-1.00;85.50;;;;;;5081941;28;20253;-74
2022/12/20 05:38:17;;;;;;;3.33;2.87;;;-1.10;85.80;;;;;;5084612;28;20282;-74
2022/12/20 05:40:45;;;;;;;2.87;2.03;;;-1.10;85.80;;;;;;5082861;28;20178;-73
2022/12/20 05:43:11;;;;;;;2.50;2.30;;;-1.10;85.60;;;;;;5082361;28;20214;-74
2022/12/20 05:45:37;;;;;;;2.23;1.93;;;-1.10;85.60;;;;;;5082645;28;20208;-72
2022/12/20 05:48:03;;;;;;;2.30;2.10;;;-1.20;85.70;;;;;;5082022;28;20228;-71
2022/12/20 05:50:28;;;;;;;2.40;2.23;;;-1.10;85.80;;;;;;5082915;28;20217;-71
2022/12/20 05:52:54;;;;;;;3.43;2.47;;;-1.20;85.70;;;;;;5081536;28;20182;-71
2022/12/20 05:55:19;;;;;;;3.17;2.30;;;-1.20;86.00;;;;;;5079889;28;20304;-71
2022/12/20 05:57:45;;;;;;;1.93;1.80;;;-1.20;85.90;;;;;;5081923;28;20184;-71
2022/12/20 06:00:12;;;;;;;1.60;1.50;;;-1.20;85.90;;;;;;5084872;28;20200;-69
2022/12/20 06:02:37;;;;;;;3.00;2.57;;;-1.30;86.00;;;;;;5085537;28;21027;-70
2022/12/20 06:05:03;;;;;;;1.70;1.63;;;-1.30;85.90;;;;;;5082957;28;20182;-69
2022/12/20 06:07:30;;;;;;;3.30;1.77;;;-1.20;85.90;;;;;;5084881;28;20185;-70
2022/12/20 06:09:56;;;;;;;1.50;1.40;;;-1.20;85.90;;;;;;5084212;28;20210;-68
2022/12/20 06:12:22;;;;;;;3.77;1.77;;;-1.20;85.80;;;;;;5084308;28;20794;-71
2022/12/20 06:14:48;;;;;;;5.93;2.07;;;-1.10;85.60;;;;;;5084486;28;20839;-69
2022/12/20 06:17:14;;;;;;;2.73;1.77;;;-1.00;85.50;;;;;;5079142;28;21655;-70
2022/12/20 06:19:40;;;;;;;2.20;2.00;;;-1.10;85.40;;;;;;5083593;28;20186;-69
2022/12/20 06:22:07;;;;;;;2.27;1.77;;;-1.00;85.80;;;;;;5083349;28;20225;-70
2022/12/20 06:24:34;;;;;;;2.40;2.17;;;-1.00;86.10;;;;;;5084694;28;20183;-69
2022/12/20 06:27:00;;;;;;;4.60;2.23;;;-0.90;86.30;;;;;;5084692;28;20170;-69
2022/12/20 06:29:25;;;;;;;2.10;1.93;;;-0.80;86.40;;;;;;5084023;28;20218;-69
2022/12/20 06:31:51;;;;;;;2.90;2.17;;;-0.60;86.50;;;;;;5084094;28;20255;-69
2022/12/20 06:34:17;;;;;;;4.77;3.13;;;-0.50;86.60;;;;;;5083971;28;20306;-69
2022/12/20 06:36:43;;;;;;;6.23;2.80;;;-0.30;86.50;;;;;;5083999;28;20272;-69
2022/12/20 06:39:09;;;;;;;3.03;2.30;;;-0.10;86.20;;;;;;5083968;28;20182;-69
2022/12/20 06:41:35;;;;;;;3.17;2.80;;;0.10;86.30;;;;;;5083641;28;20297;-69
2022/12/20 06:44:01;;;;;;;2.47;2.37;;;0.40;86.10;;;;;;5083414;28;20189;-69
2022/12/20 06:46:27;;;;;;;2.53;2.13;;;0.70;85.70;;;;;;5084328;28;20182;-69
2022/12/20 06:48:55;;;;;;;4.53;2.40;;;1.00;85.20;;;;;;5083691;28;20206;-70
2022/12/20 06:51:21;;;;;;;2.80;2.47;;;1.30;84.50;;;;;;5084360;28;20178;-69
2022/12/20 06:53:47;;;;;;;5.30;2.97;;;1.60;83.80;;;;;;5082662;28;20842;-70
2022/12/20 06:56:12;;;;;;;3.30;3.00;;;1.90;82.60;;;;;;5083029;28;20240;-70
2022/12/20 06:58:38;;;;;;;2.90;2.70;;;2.10;81.30;;;;;;5083767;28;20299;-69
2022/12/20 07:01:04;;;;;;;5.23;2.83;;;2.40;80.80;;;;;;5082294;28;20183;-69
2022/12/20 07:03:30;;;;;;;6.43;5.30;;;2.60;80.80;;;;;;5082861;28;20494;-69
2022/12/20 07:05:56;;;;;;;6.83;3.70;;;2.90;80.50;;;;;;5081627;28;20347;-70
2022/12/20 07:08:23;;;;;;;4.17;3.77;;;3.10;80.60;;;;;;5080494;28;20185;-69
2022/12/20 07:10:49;;;;;;;4.53;4.07;;;3.50;80.90;;;;;;5079941;28;20208;-69
2022/12/20 07:13:14;;;;;;;4.83;4.20;;;3.80;78.10;;;;;;5078082;28;20194;-69
2022/12/20 07:15:40;;;;;;;9.60;4.00;;;4.10;78.40;;;;;;5082323;28;20192;-69
2022/12/20 07:18:06;;;;;;;4.60;4.17;;;4.50;79.20;;;;;;5082167;28;20167;-69
2022/12/20 07:20:32;;;;;;;6.90;4.27;;;4.90;78.40;;;;;;5083178;28;20575;-70
2022/12/20 07:22:58;;;;;;;5.83;4.23;;;5.30;78.50;;;;;;5082348;28;20178;-70
2022/12/20 07:25:24;;;;;;;7.70;4.43;;;5.70;76.00;;;;;;5081392;28;20178;-69
2022/12/20 07:27:50;;;;;;;4.47;4.10;;;5.90;74.50;;;;;;5082444;28;20176;-70
2022/12/20 07:30:18;;;;;;;5.73;4.57;;;6.10;73.00;;;;;;5080431;28;20206;-68
2022/12/20 07:32:44;;;;;;;8.00;4.97;;;6.20;70.90;;;;;;5080796;28;20182;-69
2022/12/20 07:35:10;;;;;;;6.43;4.37;;;6.50;72.50;;;;;;5080160;28;20250;-69
2022/12/20 07:37:36;;;;;;;6.47;3.57;;;6.70;72.20;;;;;;5081025;28;20276;-69
2022/12/20 07:40:03;;;;;;;7.90;4.93;;;6.90;70.90;;;;;;5081355;28;20269;-69
2022/12/20 07:42:29;;;;;;;6.73;5.07;;;7.10;69.60;;;;;;5080601;28;20187;-69
2022/12/20 07:44:54;;;;;;;7.97;5.30;;;7.20;70.60;;;;;;5081401;28;20198;-69
2022/12/20 07:47:20;;;;;;;5.03;4.60;;;7.40;69.50;;;;;;5076885;28;20185;-68
2022/12/20 07:49:48;;;;;;;9.07;4.23;;;7.70;69.30;;;;;;5079366;28;20206;-69
2022/12/20 07:52:15;;;;;;;5.27;4.77;;;7.90;68.00;;;;;;5079658;28;20202;-70
2022/12/20 07:54:45;;;;;;;6.97;5.13;;;8.20;69.00;;;;;;5078390;28;20174;-69
2022/12/20 07:57:43;;;;;;;11.23;5.80;;;8.60;70.50;;;;;;5081941;28;20206;-69
2022/12/20 08:00:10;;;;;;;5.77;4.93;;;9.10;69.20;;;;;;5033913;28;20205;-69
2022/12/20 08:02:59;;;;;;;8.55;5.18;;;9.40;67.30;;;;;;5029185;28;20186;-68
2022/12/20 08:05:25;;;;;;;7.47;5.13;;;9.80;67.10;;;;;;4977966;28;20201;-69
2022/12/20 08:07:52;;;;;;;10.90;5.90;;;10.10;66.80;;;;;;4979808;28;20205;-68
2022/12/20 08:10:18;;;;;;;6.68;4.93;;;10.40;65.60;;;;;;4979026;28;20701;-68
2022/12/20 08:12:46;;;;;;;7.70;5.40;;;10.70;65.80;;;;;;4978322;28;20280;-69
2022/12/20 08:15:12;;;;;;;8.98;6.03;;;10.90;64.50;;;;;;4977764;28;20674;-68
2022/12/20 08:17:38;;;;;;;6.57;5.65;;;11.10;62.60;;;;;;4978999;28;20892;-69
2022/12/20 08:20:05;;;;;;;9.55;6.43;;;11.20;63.50;;;;;;4977790;28;20197;-69
2022/12/20 08:22:31;;;;;;;7.45;5.50;;;11.40;63.20;;;;;;4979529;28;20194;-69
2022/12/20 08:24:57;;;;;;;9.23;6.97;;;11.60;60.50;;;;;;4981759;28;20201;-69
2022/12/20 08:27:22;;;;;;;9.63;5.95;;;11.60;61.50;;;;;;4981148;28;21108;-69
2022/12/20 08:29:48;;;;;;;7.35;5.85;;;11.60;61.60;;;;;;4978177;28;20249;-67
2022/12/20 08:32:14;;;;;;;8.75;5.85;;;11.70;62.10;;;;;;4979832;28;20188;-69
2022/12/20 08:34:40;;;;;;;8.18;5.13;;;12.00;61.30;;;;;;4979888;28;20181;-69
2022/12/20 08:37:06;;;;;;;6.93;5.35;;;12.30;61.10;;;;;;5010247;28;20204;-68
2022/12/20 08:39:32;;;;;;;7.93;5.38;;;12.60;60.60;;;;;;5021463;28;20199;-69
2022/12/20 08:41:58;;;;;;;8.52;5.43;;;13.00;60.50;;;;;;5036914;28;20300;-71
2022/12/20 08:44:24;;;;;;;8.52;5.47;;;13.40;59.60;;;;;;5080547;28;20193;-69
2022/12/20 08:46:50;;;;;;;7.35;5.10;;;13.80;58.20;;;;;;5077501;28;20186;-69
2022/12/20 08:49:16;;;;;;;7.93;5.15;;;14.00;57.80;;;;;;5080597;28;20224;-70
2022/12/20 08:51:42;;;;;;;6.65;5.18;;;14.30;58.60;;;;;;5079853;28;20685;-69
2022/12/20 08:54:07;;;;;;;7.43;5.88;;;14.60;56.80;;;;;;5080476;28;20178;-70
2022/12/20 08:56:33;;;;;;;5.78;4.90;;;14.70;57.40;;;;;;5081757;28;20194;-68
2022/12/20 08:58:59;;;;;;;12.07;4.63;;;14.70;53.20;;;;;;5081127;28;20268;-68
2022/12/20 09:01:25;;;;;;;5.45;5.03;;;14.40;54.60;;;;;;5081994;28;20182;-68
2022/12/20 09:03:52;;;;;;;6.30;5.03;;;14.20;55.30;;;;;;5081050;28;20191;-69
2022/12/20 09:06:21;;;;;;;4.68;4.28;;;14.10;55.10;;;;;;5080702;28;20192;-69
2022/12/20 09:08:48;;;;;;;4.93;4.43;;;13.90;55.70;;;;;;5080453;28;20249;-69
2022/12/20 09:11:15;;;;;;;5.90;4.93;;;14.10;56.40;;;;;;5080854;28;20235;-69
2022/12/20 09:13:42;;;;;;;7.68;4.88;;;14.40;55.80;;;;;;5080579;28;20205;-69
2022/12/20 09:16:08;;;;;;;5.80;4.68;;;14.60;55.10;;;;;;5079684;28;20734;-68
2022/12/20 09:18:34;;;;;;;8.13;5.05;;;15.00;55.50;;;;;;5079428;28;20178;-69
2022/12/20 09:21:05;;;;;;;5.38;4.88;;;15.40;55.20;;;;;;5080462;28;20181;-69
2022/12/20 09:23:32;;;;;;;6.32;4.88;;;15.80;53.50;;;;;;5080723;28;20192;-69
2022/12/20 09:26:12;;;;;;;5.70;5.13;;;16.10;54.60;;;;;;5080062;28;20189;-69
2022/12/20 09:28:38;;;;;;;5.60;4.97;;;16.40;53.70;;;;;;5078768;28;20269;-70
2022/12/20 09:31:07;;;;;;;9.55;5.72;;;16.70;53.30;;;;;;5081834;28;20206;-69
2022/12/20 09:33:34;;;;;;;6.22;5.63;;;16.90;53.10;;;;;;5084716;28;20574;-70
2022/12/20 09:36:00;;;;;;;5.53;5.05;;;17.20;53.20;;;;;;5084446;28;20796;-72
2022/12/20 09:38:27;;;;;;;5.40;4.85;;;17.30;52.20;;;;;;5082874;28;20229;-72
2022/12/20 09:40:59;;;;;;;4.90;4.53;;;17.40;52.00;;;;;;5082632;28;20186;-73
2022/12/20 09:43:25;;;;;;;6.47;4.90;;;17.60;52.10;;;;;;5081042;28;20182;-71
2022/12/20 09:45:54;;;;;;;6.35;4.45;;;17.60;50.20;;;;;;5081505;28;20194;-72
2022/12/20 09:48:25;;;;;;;4.97;4.57;;;17.60;51.30;;;;;;5082895;28;20182;-72
2022/12/20 09:50:51;;;;;;;5.72;5.28;;;17.60;51.00;;;;;;5083383;28;20191;-70
2022/12/20 09:53:36;;;;;;;6.38;5.15;;;17.20;46.10;;;;;;5082879;28;20559;-71
2022/12/20 09:56:40;;;;;;;5.30;4.90;;;17.20;51.30;;;;;;5080865;28;20707;-70
2022/12/20 09:59:11;;;;;;;5.93;5.43;;;17.10;51.50;;;;;;5081609;28;20204;-70
2022/12/20 10:01:38;;;;;;;5.72;5.18;;;17.30;52.20;;;;;;5082947;28;20178;-70
2022/12/20 10:04:10;;;;;;;5.95;5.00;;;17.60;51.70;;;;;;5082649;28;20183;-71
2022/12/20 10:06:50;;;;;;;6.78;5.53;;;17.90;50.60;;;;;;5081170;28;20190;-71
2022/12/20 10:09:28;;;;;;;5.45;4.95;;;18.10;49.10;;;;;;5082152;28;20314;-71
2022/12/20 10:11:57;;;;;;;6.50;5.43;;;18.30;51.10;;;;;;5083290;28;20666;-71
2022/12/20 10:14:22;;;;;;;7.53;5.65;;;18.40;49.70;;;;;;5081084;28;20201;-70
2022/12/20 10:16:55;;;;;;;5.10;4.68;;;18.60;48.50;;;;;;5081003;28;20178;-71
2022/12/20 10:19:46;;;;;;;6.65;5.78;;;18.70;49.80;;;;;;5083053;28;20781;-71
2022/12/20 10:22:39;;;;;;;5.85;5.25;;;18.70;49.00;;;;;;5080935;28;20201;-70
2022/12/20 10:25:22;;;;;;;5.88;5.32;;;18.70;49.30;;;;;;5081827;28;20214;-71
2022/12/20 10:27:52;;;;;;;5.75;5.25;;;18.80;48.90;;;;;;5084101;28;20190;-71
2022/12/20 10:30:22;;;;;;;5.45;4.95;;;18.90;49.20;;;;;;5082245;28;20710;-71
2022/12/20 10:32:51;;;;;;;7.38;5.57;;;18.80;44.20;;;;;;5081912;28;20190;-71
2022/12/20 10:35:25;;;;;;;5.55;5.10;;;18.70;47.40;;;;;;5082812;28;20187;-71
2022/12/20 10:37:57;;;;;;;5.00;4.63;;;18.40;48.70;;;;;;5082494;28;20262;-71
2022/12/20 10:40:32;;;;;;;10.02;5.65;;;18.30;49.90;;;;;;5083481;28;20191;-70
2022/12/20 10:42:59;;;;;;;5.88;5.07;;;18.30;48.70;;;;;;5081414;28;20181;-72
2022/12/20 10:45:35;;;;;;;5.13;4.72;;;18.40;46.70;;;;;;5083174;28;20764;-70
2022/12/20 10:48:05;;;;;;;6.97;4.80;;;18.50;48.70;;;;;;5082276;28;20884;-72
2022/12/20 10:50:31;;;;;;;5.20;4.72;;;18.50;46.80;;;;;;5083082;28;20237;-70
2022/12/20 10:53:09;;;;;;;4.90;4.50;;;18.30;46.30;;;;;;5082349;28;20242;-71
2022/12/20 10:55:37;;;;;;;5.57;5.07;;;18.30;48.10;;;;;;5083429;28;20191;-70
2022/12/20 10:58:26;;;;;;;5.93;4.80;;;18.10;49.00;;;;;;5081873;28;20231;-71
2022/12/20 11:01:09;;;;;;;5.88;5.18;;;17.80;45.80;;;;;;5047681;28;20260;-71
2022/12/20 11:03:52;;;;;;;5.18;4.75;;;17.50;44.50;;;;;;5063666;28;20199;-71
2022/12/20 11:06:21;;;;;;;5.25;4.32;;;17.40;49.80;;;;;;5063832;28;21023;-72
2022/12/20 11:08:49;;;;;;;4.65;4.32;;;17.40;46.60;;;;;;5073198;28;20746;-70
2022/12/20 11:11:19;;;;;;;5.05;4.55;;;17.40;48.70;;;;;;5062932;28;20221;-71
2022/12/20 11:13:46;;;;;;;6.43;5.13;;;17.30;48.70;;;;;;5072740;28;20248;-71
2022/12/20 11:16:36;;;;;;;4.68;4.30;;;17.30;48.20;;;;;;5070189;28;20245;-70
2022/12/20 11:19:02;;;;;;;3.97;3.65;;;17.10;44.60;;;;;;5019669;28;20208;-71
2022/12/20 11:21:42;;;;;;;4.07;3.78;;;17.00;45.80;;;;;;5023875;28;20205;-70
2022/12/20 11:24:18;;;;;;;4.50;4.15;;;17.00;48.10;;;;;;5028531;28;20238;-70
2022/12/20 11:27:24;;;;;;;3.83;3.58;;;16.80;47.70;;;;;;5027912;28;20194;-70
2022/12/20 11:30:03;;;;;;;3.80;3.40;;;16.60;45.00;;;;;;5025062;28;20235;-69
2022/12/20 11:32:41;;;;;;;4.43;4.13;;;16.60;47.40;;;;;;5027418;28;20598;-69
2022/12/20 11:35:35;;;;;;;4.00;3.80;;;16.60;47.50;;;;;;5023678;28;20677;-70
2022/12/20 11:38:13;;;;;;;5.00;3.38;;;16.60;49.40;;;;;;5034148;28;20237;-69
2022/12/20 11:41:06;;;;;;;3.28;3.05;;;16.60;47.30;;;;;;5045540;28;20191;-69
2022/12/20 11:43:57;;;;;;;3.75;3.45;;;16.60;48.50;;;;;;5043868;28;20717;-69
2022/12/20 11:46:41;;;;;;;3.85;3.20;;;16.60;44.90;;;;;;5053049;28;20653;-70
2022/12/20 11:49:39;;;;;;;3.63;3.38;;;16.70;47.40;;;;;;5050635;28;20234;-70
2022/12/20 11:52:23;;;;;;;3.70;3.50;;;16.80;49.40;;;;;;5043128;28;20210;-70
2022/12/20 11:55:03;;;;;;;3.47;3.28;;;16.90;46.00;;;;;;5048319;28;20215;-71
2022/12/20 11:57:34;;;;;;;3.92;3.45;;;16.90;47.70;;;;;;5080522;28;20189;-70
2022/12/20 12:00:01;;;;;;;3.83;3.30;;;16.70;47.00;;;;;;5082106;28;20258;-71
2022/12/20 12:02:34;;;;;;;4.82;3.63;;;16.60;47.50;;;;;;5081278;28;20618;-71
2022/12/20 12:05:13;;;;;;;6.18;3.90;;;16.00;44.60;;;;;;5081026;28;20247;-71
2022/12/20 12:07:43;;;;;;;4.05;3.67;;;15.80;44.80;;;;;;5077973;28;20178;-71
2022/12/20 12:10:25;;;;;;;3.97;3.67;;;15.60;46.30;;;;;;5081073;28;20241;-70
2022/12/20 12:13:22;;;;;;;4.15;3.63;;;15.70;49.30;;;;;;5080308;28;20189;-70
2022/12/20 12:15:56;;;;;;;3.20;3.00;;;15.70;46.60;;;;;;5080373;28;20198;-70
2022/12/20 12:18:33;;;;;;;3.65;3.45;;;15.60;47.90;;;;;;5081389;28;20920;-71
2022/12/20 12:21:23;;;;;;;5.35;3.55;;;15.40;44.30;;;;;;5080645;28;20213;-69
2022/12/20 12:24:04;;;;;;;3.47;3.10;;;15.50;46.00;;;;;;5078625;28;20203;-70
2022/12/20 12:26:36;;;;;;;3.58;3.28;;;15.40;46.90;;;;;;5081723;28;20302;-71
2022/12/20 12:29:08;;;;;;;4.47;3.53;;;15.30;46.20;;;;;;5079943;28;20203;-71
2022/12/20 12:31:58;;;;;;;3.28;2.97;;;15.40;46.50;;;;;;5080059;28;20201;-71
2022/12/20 12:35:01;;;;;;;3.78;3.47;;;15.40;46.60;;;;;;5078165;28;20243;-70
2022/12/20 12:37:45;;;;;;;3.97;3.65;;;15.50;47.20;;;;;;5081239;28;20207;-72
2022/12/20 12:40:23;;;;;;;4.10;3.55;;;15.50;46.60;;;;;;5078581;28;20192;-71
2022/12/20 12:42:55;;;;;;;5.22;4.00;;;15.60;47.00;;;;;;5077904;28;20178;-70
2022/12/20 12:45:31;;;;;;;3.00;2.80;;;15.60;45.00;;;;;;5078267;28;20205;-71
2022/12/20 12:48:25;;;;;;;4.25;3.80;;;15.60;45.90;;;;;;5079150;28;20309;-71
2022/12/20 12:50:55;;;;;;;3.22;2.95;;;15.60;45.40;;;;;;5084773;28;20343;-71
2022/12/20 12:53:43;;;;;;;2.80;2.67;;;15.80;44.60;;;;;;5080361;28;20197;-71
2022/12/20 12:56:27;;;;;;;3.53;2.88;;;15.80;45.20;;;;;;5084847;28;20197;-70
2022/12/20 12:59:05;;;;;;;4.00;3.60;;;15.90;44.40;;;;;;5085098;28;20193;-69
2022/12/20 13:01:45;;;;;;;3.40;3.20;;;15.70;45.00;;;;;;5086901;28;20182;-70
2022/12/20 13:04:24;;;;;;;3.30;3.00;;;15.80;46.40;;;;;;5080594;28;20186;-69
2022/12/20 13:06:49;;;;;;;4.15;3.67;;;15.80;44.80;;;;;;5088374;28;20182;-70
2022/12/20 13:09:35;;;;;;;4.63;3.63;;;15.80;44.80;;;;;;5083074;28;20232;-71
2022/12/20 13:12:35;;;;;;;2.92;2.83;;;15.90;47.20;;;;;;5089909;28;20185;-70
2022/12/20 13:15:21;;;;;;;3.22;3.03;;;16.00;45.50;;;;;;5089750;28;20236;-70